sensor_id;sensor_type;location;lat;lon;timestamp;temperature;humidity
15969;DHT22;8085;53.472;9.794;2022-07-22T07:19:30;17.50;91.60
15969;DHT22;8085;53.472;9.794;2022-07-22T09:40:51;18.60;1.00
15969;DHT22;8085;53.472;9.794;2022-07-22T09:43:37;18.70;1.00
15969;DHT22;8085;53.472;9.794;2022-07-22T09:46:08;18.80;99.90
15969;DHT22;8085;53.472;9.794;2022-07-22T09:48:38;18.80;99.90
15969;DHT22;8085;53.472;9.794;2022-07-22T09:51:13;18.80;99.90
15969;DHT22;8085;53.472;9.794;2022-07-22T09:54:18;18.90;99.90
15969;DHT22;8085;53.472;9.794;2022-07-22T10:06:38;18.90;99.90
15969;DHT22;8085;53.472;9.794;2022-07-22T10:09:08;19.30;1.00
15969;DHT22;8085;53.472;9.794;2022-07-22T10:11:58;19.30;1.00
15969;DHT22;8085;53.472;9.794;2022-07-22T10:41:05;19.10;1.00
15969;DHT22;8085;53.472;9.794;2022-07-22T10:54:04;19.20;1.00
15969;DHT22;8085;53.472;9.794;2022-07-22T10:56:48;19.40;1.00
15969;DHT22;8085;53.472;9.794;2022-07-22T10:59:56;19.30;1.00
15969;DHT22;8085;53.472;9.794;2022-07-22T11:10:00;19.30;99.90
15969;DHT22;8085;53.472;9.794;2022-07-22T11:10:52;19.90;1.00
15969;DHT22;8085;53.472;9.794;2022-07-22T11:14:17;20.40;1.00
15969;DHT22;8085;53.472;9.794;2022-07-22T11:19:55;20.20;29.00
15969;DHT22;8085;53.472;9.794;2022-07-22T11:22:22;20.30;99.90
15969;DHT22;8085;53.472;9.794;2022-07-22T11:24:49;20.00;99.90
15969;DHT22;8085;53.472;9.794;2022-07-22T11:27:18;19.90;1.00
15969;DHT22;8085;53.472;9.794;2022-07-22T11:29:50;19.80;1.00
15969;DHT22;8085;53.472;9.794;2022-07-22T11:32:19;19.80;99.90
15969;DHT22;8085;53.472;9.794;2022-07-22T11:34:47;19.60;1.00
15969;DHT22;8085;53.472;9.794;2022-07-22T11:37:15;19.60;1.00
15969;DHT22;8085;53.472;9.794;2022-07-22T11:39:42;19.60;1.00
15969;DHT22;8085;53.472;9.794;2022-07-22T11:42:09;19.70;99.90
15969;DHT22;8085;53.472;9.794;2022-07-22T11:44:38;19.80;1.00
15969;DHT22;8085;53.472;9.794;2022-07-22T11:47:07;19.80;1.00
15969;DHT22;8085;53.472;9.794;2022-07-22T11:49:36;19.70;1.00
15969;DHT22;8085;53.472;9.794;2022-07-22T11:52:06;19.60;1.00
15969;DHT22;8085;53.472;9.794;2022-07-22T11:54:37;19.50;1.00
15969;DHT22;8085;53.472;9.794;2022-07-22T11:57:04;19.40;1.00
15969;DHT22;8085;53.472;9.794;2022-07-22T11:59:33;19.30;1.00
15969;DHT22;8085;53.472;9.794;2022-07-22T12:02:02;19.40;1.00
15969;DHT22;8085;53.472;9.794;2022-07-22T12:04:32;19.40;99.90
15969;DHT22;8085;53.472;9.794;2022-07-22T12:07:00;19.50;1.00
15969;DHT22;8085;53.472;9.794;2022-07-22T12:09:31;19.80;1.00
15969;DHT22;8085;53.472;9.794;2022-07-22T12:11:59;20.00;1.00
15969;DHT22;8085;53.472;9.794;2022-07-22T12:14:28;20.00;96.30
15969;DHT22;8085;53.472;9.794;2022-07-22T12:16:59;20.00;1.00
15969;DHT22;8085;53.472;9.794;2022-07-22T12:19:26;19.90;1.00
15969;DHT22;8085;53.472;9.794;2022-07-22T12:22:01;19.80;1.00
15969;DHT22;8085;53.472;9.794;2022-07-22T12:24:30;19.60;1.00
15969;DHT22;8085;53.472;9.794;2022-07-22T12:26:58;19.40;1.00
15969;DHT22;8085;53.472;9.794;2022-07-22T12:29:27;19.40;1.00
15969;DHT22;8085;53.472;9.794;2022-07-22T12:31:58;19.30;99.90
15969;DHT22;8085;53.472;9.794;2022-07-22T12:34:31;19.50;97.50
15969;DHT22;8085;53.472;9.794;2022-07-22T12:37:00;19.80;1.00
15969;DHT22;8085;53.472;9.794;2022-07-22T12:39:28;19.80;1.00
15969;DHT22;8085;53.472;9.794;2022-07-22T12:41:55;19.80;1.00
15969;DHT22;8085;53.472;9.794;2022-07-22T12:44:24;19.70;99.90
15969;DHT22;8085;53.472;9.794;2022-07-22T12:46:53;19.90;1.00
15969;DHT22;8085;53.472;9.794;2022-07-22T12:49:22;19.80;99.90
15969;DHT22;8085;53.472;9.794;2022-07-22T12:52:11;19.80;1.00
15969;DHT22;8085;53.472;9.794;2022-07-22T12:54:39;19.80;1.00
15969;DHT22;8085;53.472;9.794;2022-07-22T12:57:08;19.80;1.00
15969;DHT22;8085;53.472;9.794;2022-07-22T12:59:35;20.10;1.00
15969;DHT22;8085;53.472;9.794;2022-07-22T13:02:03;20.20;1.00
15969;DHT22;8085;53.472;9.794;2022-07-22T13:04:30;20.10;1.00
15969;DHT22;8085;53.472;9.794;2022-07-22T13:06:57;20.10;99.90
15969;DHT22;8085;53.472;9.794;2022-07-22T13:09:25;20.20;99.90
15969;DHT22;8085;53.472;9.794;2022-07-22T13:11:52;20.20;1.00
15969;DHT22;8085;53.472;9.794;2022-07-22T13:14:19;20.20;1.00
15969;DHT22;8085;53.472;9.794;2022-07-22T13:16:46;20.10;1.00
15969;DHT22;8085;53.472;9.794;2022-07-22T13:19:13;20.00;1.00
15969;DHT22;8085;53.472;9.794;2022-07-22T13:21:40;20.10;1.00
15969;DHT22;8085;53.472;9.794;2022-07-22T13:24:07;20.20;99.90
15969;DHT22;8085;53.472;9.794;2022-07-22T13:26:36;20.40;99.90
15969;DHT22;8085;53.472;9.794;2022-07-22T13:29:03;20.60;53.30
15969;DHT22;8085;53.472;9.794;2022-07-22T13:31:30;20.50;99.90
15969;DHT22;8085;53.472;9.794;2022-07-22T13:33:57;20.60;1.00
15969;DHT22;8085;53.472;9.794;2022-07-22T13:36:24;20.70;63.70
15969;DHT22;8085;53.472;9.794;2022-07-22T13:38:53;20.70;1.00
15969;DHT22;8085;53.472;9.794;2022-07-22T13:41:20;20.50;99.90
15969;DHT22;8085;53.472;9.794;2022-07-22T13:43:49;20.50;1.00
15969;DHT22;8085;53.472;9.794;2022-07-22T13:46:16;20.40;1.00
15969;DHT22;8085;53.472;9.794;2022-07-22T13:48:44;20.20;1.00
15969;DHT22;8085;53.472;9.794;2022-07-22T13:51:11;20.20;99.90
15969;DHT22;8085;53.472;9.794;2022-07-22T13:53:40;20.10;1.00
15969;DHT22;8085;53.472;9.794;2022-07-22T13:56:08;20.00;1.00
15969;DHT22;8085;53.472;9.794;2022-07-22T13:58:38;20.00;7.40
15969;DHT22;8085;53.472;9.794;2022-07-22T14:01:08;19.90;1.00
15969;DHT22;8085;53.472;9.794;2022-07-22T14:03:35;20.20;1.00
15969;DHT22;8085;53.472;9.794;2022-07-22T14:06:03;20.10;1.00
15969;DHT22;8085;53.472;9.794;2022-07-22T14:08:30;20.10;99.90
15969;DHT22;8085;53.472;9.794;2022-07-22T14:10:57;20.00;1.00
15969;DHT22;8085;53.472;9.794;2022-07-22T14:13:24;20.10;99.90
15969;DHT22;8085;53.472;9.794;2022-07-22T14:15:51;20.10;1.00
15969;DHT22;8085;53.472;9.794;2022-07-22T14:18:19;20.30;99.90
15969;DHT22;8085;53.472;9.794;2022-07-22T14:20:47;20.40;1.00
15969;DHT22;8085;53.472;9.794;2022-07-22T14:23:14;20.50;1.00
15969;DHT22;8085;53.472;9.794;2022-07-22T14:25:42;20.60;1.00
15969;DHT22;8085;53.472;9.794;2022-07-22T14:28:09;20.60;99.90
15969;DHT22;8085;53.472;9.794;2022-07-22T14:30:36;20.50;1.00
15969;DHT22;8085;53.472;9.794;2022-07-22T14:33:03;20.30;10.60
15969;DHT22;8085;53.472;9.794;2022-07-22T14:35:31;20.20;1.00
15969;DHT22;8085;53.472;9.794;2022-07-22T14:38:00;20.20;1.00
15969;DHT22;8085;53.472;9.794;2022-07-22T14:40:27;20.10;1.00
15969;DHT22;8085;53.472;9.794;2022-07-22T14:42:54;20.10;1.00
15969;DHT22;8085;53.472;9.794;2022-07-22T14:45:21;20.20;1.00
15969;DHT22;8085;53.472;9.794;2022-07-22T14:47:48;20.30;11.90
15969;DHT22;8085;53.472;9.794;2022-07-22T14:50:15;20.30;1.00
15969;DHT22;8085;53.472;9.794;2022-07-22T14:52:44;20.40;99.90
15969;DHT22;8085;53.472;9.794;2022-07-22T14:55:15;20.40;99.90
15969;DHT22;8085;53.472;9.794;2022-07-22T14:57:42;20.50;1.00
15969;DHT22;8085;53.472;9.794;2022-07-22T15:00:09;20.40;1.00
15969;DHT22;8085;53.472;9.794;2022-07-22T15:02:38;20.50;58.00
15969;DHT22;8085;53.472;9.794;2022-07-22T15:05:05;20.40;1.00
15969;DHT22;8085;53.472;9.794;2022-07-22T15:07:33;20.40;31.10
15969;DHT22;8085;53.472;9.794;2022-07-22T15:10:01;20.30;1.00
15969;DHT22;8085;53.472;9.794;2022-07-22T15:12:28;20.40;99.90
15969;DHT22;8085;53.472;9.794;2022-07-22T15:14:55;20.50;99.90
15969;DHT22;8085;53.472;9.794;2022-07-22T15:17:22;20.50;1.00
15969;DHT22;8085;53.472;9.794;2022-07-22T15:19:49;20.60;99.90
15969;DHT22;8085;53.472;9.794;2022-07-22T15:22:18;20.50;1.00
15969;DHT22;8085;53.472;9.794;2022-07-22T15:24:45;20.40;1.00
15969;DHT22;8085;53.472;9.794;2022-07-22T15:27:13;20.40;99.90
15969;DHT22;8085;53.472;9.794;2022-07-22T15:29:41;20.40;1.00
15969;DHT22;8085;53.472;9.794;2022-07-22T15:32:08;20.30;1.00
15969;DHT22;8085;53.472;9.794;2022-07-22T15:34:35;20.40;99.90
15969;DHT22;8085;53.472;9.794;2022-07-22T15:37:02;20.40;81.00
15969;DHT22;8085;53.472;9.794;2022-07-22T15:39:29;20.40;1.00
15969;DHT22;8085;53.472;9.794;2022-07-22T15:41:56;20.40;29.40
15969;DHT22;8085;53.472;9.794;2022-07-22T15:44:24;20.50;92.40
15969;DHT22;8085;53.472;9.794;2022-07-22T15:46:51;20.60;1.00
15969;DHT22;8085;53.472;9.794;2022-07-22T15:49:20;20.50;99.90
15969;DHT22;8085;53.472;9.794;2022-07-22T15:51:47;20.40;99.90
15969;DHT22;8085;53.472;9.794;2022-07-22T15:54:17;20.30;99.90
15969;DHT22;8085;53.472;9.794;2022-07-22T15:56:44;20.10;99.90
15969;DHT22;8085;53.472;9.794;2022-07-22T15:59:11;20.10;10.30
15969;DHT22;8085;53.472;9.794;2022-07-22T16:01:56;20.10;99.90
15969;DHT22;8085;53.472;9.794;2022-07-22T16:04:24;20.00;99.90
15969;DHT22;8085;53.472;9.794;2022-07-22T16:06:51;20.10;99.90
15969;DHT22;8085;53.472;9.794;2022-07-22T16:09:19;20.00;1.00
15969;DHT22;8085;53.472;9.794;2022-07-22T16:11:46;20.00;1.00
15969;DHT22;8085;53.472;9.794;2022-07-22T16:14:13;20.00;1.00
15969;DHT22;8085;53.472;9.794;2022-07-22T16:16:40;20.00;1.00
15969;DHT22;8085;53.472;9.794;2022-07-22T16:19:08;20.00;1.00
15969;DHT22;8085;53.472;9.794;2022-07-22T16:21:35;20.10;1.00
15969;DHT22;8085;53.472;9.794;2022-07-22T16:24:02;20.00;99.90
15969;DHT22;8085;53.472;9.794;2022-07-22T16:26:29;20.00;99.90
15969;DHT22;8085;53.472;9.794;2022-07-22T16:28:56;20.10;1.00
15969;DHT22;8085;53.472;9.794;2022-07-22T16:31:23;20.00;26.00
15969;DHT22;8085;53.472;9.794;2022-07-22T16:33:51;19.90;1.00
15969;DHT22;8085;53.472;9.794;2022-07-22T16:36:19;20.00;1.00
15969;DHT22;8085;53.472;9.794;2022-07-22T16:38:46;19.90;1.00
15969;DHT22;8085;53.472;9.794;2022-07-22T16:41:13;20.00;1.00
15969;DHT22;8085;53.472;9.794;2022-07-22T16:43:40;20.00;1.00
15969;DHT22;8085;53.472;9.794;2022-07-22T16:46:08;19.90;1.00
15969;DHT22;8085;53.472;9.794;2022-07-22T16:48:35;20.00;99.90
15969;DHT22;8085;53.472;9.794;2022-07-22T16:51:02;20.00;1.00
15969;DHT22;8085;53.472;9.794;2022-07-22T16:53:30;20.00;99.90
15969;DHT22;8085;53.472;9.794;2022-07-22T16:55:57;19.90;1.00
15969;DHT22;8085;53.472;9.794;2022-07-22T16:58:24;19.80;99.90
15969;DHT22;8085;53.472;9.794;2022-07-22T17:00:51;19.80;1.00
15969;DHT22;8085;53.472;9.794;2022-07-22T17:03:18;19.80;1.00
15969;DHT22;8085;53.472;9.794;2022-07-22T17:05:45;19.70;1.00
15969;DHT22;8085;53.472;9.794;2022-07-22T17:08:12;19.70;99.90
15969;DHT22;8085;53.472;9.794;2022-07-22T17:10:40;19.60;99.90
15969;DHT22;8085;53.472;9.794;2022-07-22T17:13:09;19.60;99.90
15969;DHT22;8085;53.472;9.794;2022-07-22T17:15:35;19.60;1.00
15969;DHT22;8085;53.472;9.794;2022-07-22T17:18:03;19.60;99.90
15969;DHT22;8085;53.472;9.794;2022-07-22T18:58:06;18.80;1.00
15969;DHT22;8085;53.472;9.794;2022-07-22T19:00:33;18.80;1.00
15969;DHT22;8085;53.472;9.794;2022-07-22T19:03:01;18.80;1.00
15969;DHT22;8085;53.472;9.794;2022-07-22T19:05:28;18.90;1.00
15969;DHT22;8085;53.472;9.794;2022-07-22T19:07:55;18.80;1.00
15969;DHT22;8085;53.472;9.794;2022-07-22T19:10:38;18.80;1.00
15969;DHT22;8085;53.472;9.794;2022-07-22T19:13:10;18.90;1.00
15969;DHT22;8085;53.472;9.794;2022-07-22T19:15:41;18.90;1.00
15969;DHT22;8085;53.472;9.794;2022-07-22T19:18:08;18.80;1.00
15969;DHT22;8085;53.472;9.794;2022-07-22T19:20:36;18.80;1.00
15969;DHT22;8085;53.472;9.794;2022-07-22T19:23:03;18.80;1.00
15969;DHT22;8085;53.472;9.794;2022-07-22T19:25:30;18.60;1.00
15969;DHT22;8085;53.472;9.794;2022-07-22T19:27:57;18.60;1.00
15969;DHT22;8085;53.472;9.794;2022-07-22T19:30:28;18.70;1.00
15969;DHT22;8085;53.472;9.794;2022-07-22T19:32:55;18.80;1.00
15969;DHT22;8085;53.472;9.794;2022-07-22T19:35:22;18.70;1.00
15969;DHT22;8085;53.472;9.794;2022-07-22T19:37:49;18.60;1.00
15969;DHT22;8085;53.472;9.794;2022-07-22T19:40:16;18.60;1.00
15969;DHT22;8085;53.472;9.794;2022-07-22T19:42:45;18.50;1.00
15969;DHT22;8085;53.472;9.794;2022-07-22T19:45:12;18.60;1.00
15969;DHT22;8085;53.472;9.794;2022-07-22T19:47:41;18.50;1.00
15969;DHT22;8085;53.472;9.794;2022-07-22T19:50:08;18.50;1.00
15969;DHT22;8085;53.472;9.794;2022-07-22T19:52:36;18.50;1.00
15969;DHT22;8085;53.472;9.794;2022-07-22T19:55:04;18.50;1.00
15969;DHT22;8085;53.472;9.794;2022-07-22T19:57:31;18.50;1.00
15969;DHT22;8085;53.472;9.794;2022-07-22T19:59:58;18.60;1.00
15969;DHT22;8085;53.472;9.794;2022-07-22T20:02:25;18.60;1.00
15969;DHT22;8085;53.472;9.794;2022-07-22T20:04:55;18.50;1.00
15969;DHT22;8085;53.472;9.794;2022-07-22T20:07:22;18.50;1.00
15969;DHT22;8085;53.472;9.794;2022-07-22T20:09:50;18.50;1.00
15969;DHT22;8085;53.472;9.794;2022-07-22T20:12:17;18.50;1.00
15969;DHT22;8085;53.472;9.794;2022-07-22T20:14:44;18.40;1.00
15969;DHT22;8085;53.472;9.794;2022-07-22T20:17:11;18.50;1.00
15969;DHT22;8085;53.472;9.794;2022-07-22T20:19:38;18.40;1.00
15969;DHT22;8085;53.472;9.794;2022-07-22T20:22:24;18.40;1.00
15969;DHT22;8085;53.472;9.794;2022-07-22T20:25:04;18.30;1.00
15969;DHT22;8085;53.472;9.794;2022-07-22T20:27:31;18.20;1.00
15969;DHT22;8085;53.472;9.794;2022-07-22T20:29:58;18.10;1.00
15969;DHT22;8085;53.472;9.794;2022-07-22T20:32:25;18.10;1.00
15969;DHT22;8085;53.472;9.794;2022-07-22T20:34:53;18.20;1.00
15969;DHT22;8085;53.472;9.794;2022-07-22T20:37:21;18.10;1.00
15969;DHT22;8085;53.472;9.794;2022-07-22T20:39:48;18.00;1.00
15969;DHT22;8085;53.472;9.794;2022-07-22T20:42:19;18.00;1.00
15969;DHT22;8085;53.472;9.794;2022-07-22T20:44:54;18.00;1.00
15969;DHT22;8085;53.472;9.794;2022-07-22T20:47:21;18.00;1.00
15969;DHT22;8085;53.472;9.794;2022-07-22T20:49:48;18.00;1.00
15969;DHT22;8085;53.472;9.794;2022-07-22T20:52:15;18.00;1.00
15969;DHT22;8085;53.472;9.794;2022-07-22T20:54:43;18.00;1.00
15969;DHT22;8085;53.472;9.794;2022-07-22T20:57:15;18.00;1.00
15969;DHT22;8085;53.472;9.794;2022-07-22T20:59:43;18.00;1.00
15969;DHT22;8085;53.472;9.794;2022-07-22T21:02:10;18.00;1.00
15969;DHT22;8085;53.472;9.794;2022-07-22T21:04:37;18.10;1.00
15969;DHT22;8085;53.472;9.794;2022-07-22T21:07:04;18.00;1.00
15969;DHT22;8085;53.472;9.794;2022-07-22T21:09:40;18.10;1.00
15969;DHT22;8085;53.472;9.794;2022-07-22T21:12:08;18.00;1.00
15969;DHT22;8085;53.472;9.794;2022-07-22T21:14:35;18.00;1.00
15969;DHT22;8085;53.472;9.794;2022-07-22T21:17:02;18.00;1.00
15969;DHT22;8085;53.472;9.794;2022-07-22T21:19:29;18.10;1.00
15969;DHT22;8085;53.472;9.794;2022-07-22T21:21:56;18.10;1.00
15969;DHT22;8085;53.472;9.794;2022-07-22T21:24:23;18.00;1.00
15969;DHT22;8085;53.472;9.794;2022-07-22T21:26:50;18.10;1.00
15969;DHT22;8085;53.472;9.794;2022-07-22T21:29:19;18.00;1.00
15969;DHT22;8085;53.472;9.794;2022-07-22T21:31:46;18.00;1.00
15969;DHT22;8085;53.472;9.794;2022-07-22T21:34:13;18.00;1.00
15969;DHT22;8085;53.472;9.794;2022-07-22T21:36:40;17.90;1.00
15969;DHT22;8085;53.472;9.794;2022-07-22T21:39:07;17.70;1.00
15969;DHT22;8085;53.472;9.794;2022-07-22T21:41:37;17.70;1.00
15969;DHT22;8085;53.472;9.794;2022-07-22T21:44:10;17.70;1.00
15969;DHT22;8085;53.472;9.794;2022-07-22T21:46:42;17.70;1.00
15969;DHT22;8085;53.472;9.794;2022-07-22T21:49:09;17.80;1.00
15969;DHT22;8085;53.472;9.794;2022-07-22T21:51:38;17.80;1.00
15969;DHT22;8085;53.472;9.794;2022-07-22T21:54:07;17.80;1.00
15969;DHT22;8085;53.472;9.794;2022-07-22T21:56:33;17.80;1.00
15969;DHT22;8085;53.472;9.794;2022-07-22T21:59:23;17.80;1.00
15969;DHT22;8085;53.472;9.794;2022-07-22T22:01:52;17.70;1.00
15969;DHT22;8085;53.472;9.794;2022-07-22T22:04:20;17.70;1.00
15969;DHT22;8085;53.472;9.794;2022-07-22T22:06:48;17.80;1.00
15969;DHT22;8085;53.472;9.794;2022-07-22T22:09:15;17.80;1.00
15969;DHT22;8085;53.472;9.794;2022-07-22T22:11:44;17.80;1.00
15969;DHT22;8085;53.472;9.794;2022-07-22T22:14:17;17.80;1.00
15969;DHT22;8085;53.472;9.794;2022-07-22T22:16:45;17.80;1.00
15969;DHT22;8085;53.472;9.794;2022-07-22T22:19:13;17.80;1.00
15969;DHT22;8085;53.472;9.794;2022-07-22T22:21:45;17.80;1.00
15969;DHT22;8085;53.472;9.794;2022-07-22T22:24:12;17.70;1.00
15969;DHT22;8085;53.472;9.794;2022-07-22T22:26:40;17.60;1.00
15969;DHT22;8085;53.472;9.794;2022-07-22T22:29:08;17.60;1.00
15969;DHT22;8085;53.472;9.794;2022-07-22T22:31:36;17.60;1.00
15969;DHT22;8085;53.472;9.794;2022-07-22T22:34:03;17.60;1.00
15969;DHT22;8085;53.472;9.794;2022-07-22T22:36:31;17.60;1.00
15969;DHT22;8085;53.472;9.794;2022-07-22T22:38:59;17.50;1.00
15969;DHT22;8085;53.472;9.794;2022-07-22T22:41:27;17.50;1.00
15969;DHT22;8085;53.472;9.794;2022-07-22T22:43:54;17.50;1.00
15969;DHT22;8085;53.472;9.794;2022-07-22T22:46:21;17.50;1.00
15969;DHT22;8085;53.472;9.794;2022-07-22T22:48:48;17.50;1.00
15969;DHT22;8085;53.472;9.794;2022-07-22T22:51:15;17.50;1.00
15969;DHT22;8085;53.472;9.794;2022-07-22T22:53:43;17.40;1.00
15969;DHT22;8085;53.472;9.794;2022-07-22T22:56:10;17.40;1.00
15969;DHT22;8085;53.472;9.794;2022-07-22T22:58:38;17.40;1.00
15969;DHT22;8085;53.472;9.794;2022-07-22T23:01:05;17.40;1.00
15969;DHT22;8085;53.472;9.794;2022-07-22T23:03:33;17.30;1.00
15969;DHT22;8085;53.472;9.794;2022-07-22T23:06:00;17.30;1.00
15969;DHT22;8085;53.472;9.794;2022-07-22T23:08:27;17.40;1.00
15969;DHT22;8085;53.472;9.794;2022-07-22T23:10:56;17.50;1.00
15969;DHT22;8085;53.472;9.794;2022-07-22T23:13:30;17.50;1.00
15969;DHT22;8085;53.472;9.794;2022-07-22T23:16:05;17.50;1.00
15969;DHT22;8085;53.472;9.794;2022-07-22T23:18:40;17.50;1.00
15969;DHT22;8085;53.472;9.794;2022-07-22T23:37:34;17.30;1.00
15969;DHT22;8085;53.472;9.794;2022-07-22T23:40:55;17.40;1.00
15969;DHT22;8085;53.472;9.794;2022-07-22T23:55:05;17.10;1.00
